Terminal Aerodrome Forecast
Issued by NWS

Home | Current Version | Previous Version | Text Only | Print | Product List | Glossary On
Versions: 1 2 3 4 5 6 7 8 9 10 11 12 13 14 15 16
000
FTUS45 KTFX 290534
TAFHLN
TAF
KHLN 290534Z 2906/3006 VRB06KT P6SM SCT250
     FM292000 24010G18KT P6SM SCT100 BKN250
     FM300000 VRB05KT P6SM BKN100 PROB30 3000/3006 P6SM -SHRA
      OVC070=

USA.gov is the U.S. government's official web portal to all federal, state and local government web resources and services.